NOZ539 ENZV-ENTO
Flight info
| Callsign | NOZ539 |
|---|---|
| Flight time | 0h 30m |
| Altitude | 25000 |
| Route | UPLEV1H UPLEV DCT ULMUG ULMUG2S |
| Aircraft | B738/M-SDE2E3FGHIRWXY/LB1 |
Departure
| Time | 2026-04-23 10:08 |
|---|---|
| Airport | Stavanger Airport, Sola (ENZV) |
Arrival
| Time | 2026-04-23 10:38 |
|---|---|
| Airport | Sandefjord Airport, Torp (ENTO) |
| Time | Latitude | Longitude | Altitude | Speed | Heading |
|---|---|---|---|---|---|
| 2026-04-23 09:35 | 58.88357 | 5.63011 | 26 ft | 0 kts | 223° |
| 2026-04-23 09:43 | 58.88357 | 5.63012 | 24 ft | 0 kts | 223° |
| 2026-04-23 09:58 | 58.88359 | 5.63015 | 24 ft | 2 kts | 223° |
| 2026-04-23 09:58 | 58.88378 | 5.63050 | 27 ft | 4 kts | 223° |
| 2026-04-23 09:58 | 58.88398 | 5.63085 | 29 ft | 4 kts | 223° |
| 2026-04-23 09:59 | 58.88418 | 5.63120 | 30 ft | 4 kts | 223° |
| 2026-04-23 09:59 | 58.88420 | 5.63124 | 26 ft | 1 kts | 223° |
| 2026-04-23 10:01 | 58.88411 | 5.63119 | 27 ft | 2 kts | 182° |
| 2026-04-23 10:02 | 58.88400 | 5.63155 | 41 ft | 6 kts | 114° |
| 2026-04-23 10:02 | 58.88373 | 5.63219 | 28 ft | 7 kts | 146° |
| 2026-04-23 10:02 | 58.88313 | 5.63260 | 28 ft | 11 kts | 162° |
| 2026-04-23 10:02 | 58.88271 | 5.63386 | 30 ft | 13 kts | 119° |
| 2026-04-23 10:03 | 58.88172 | 5.63433 | 29 ft | 17 kts | 178° |
| 2026-04-23 10:03 | 58.88054 | 5.63439 | 29 ft | 17 kts | 178° |
| 2026-04-23 10:03 | 58.87947 | 5.63375 | 30 ft | 16 kts | 202° |
| 2026-04-23 10:03 | 58.87846 | 5.63297 | 30 ft | 16 kts | 192° |
| 2026-04-23 10:04 | 58.87739 | 5.63294 | 30 ft | 15 kts | 179° |
| 2026-04-23 10:04 | 58.87635 | 5.63298 | 30 ft | 15 kts | 179° |
| 2026-04-23 10:04 | 58.87531 | 5.63300 | 30 ft | 15 kts | 180° |
| 2026-04-23 10:04 | 58.87430 | 5.63301 | 30 ft | 14 kts | 179° |
| 2026-04-23 10:05 | 58.87333 | 5.63304 | 30 ft | 14 kts | 179° |
| 2026-04-23 10:05 | 58.87233 | 5.63307 | 30 ft | 14 kts | 179° |
| 2026-04-23 10:05 | 58.87136 | 5.63312 | 31 ft | 14 kts | 179° |
| 2026-04-23 10:05 | 58.87044 | 5.63328 | 31 ft | 13 kts | 160° |
| 2026-04-23 10:06 | 58.86969 | 5.63435 | 31 ft | 14 kts | 128° |
| 2026-04-23 10:06 | 58.86952 | 5.63608 | 35 ft | 13 kts | 88° |
| 2026-04-23 10:06 | 58.86972 | 5.63773 | 35 ft | 13 kts | 46° |
| 2026-04-23 10:06 | 58.87043 | 5.63800 | 34 ft | 0 kts | 357° |
| 2026-04-23 10:07 | 58.87054 | 5.63799 | 34 ft | 8 kts | 357° |
| 2026-04-23 10:07 | 58.87370 | 5.63789 | 33 ft | 83 kts | 360° |
| 2026-04-23 10:07 | 58.88163 | 5.63768 | 88 ft | 139 kts | 356° |
| 2026-04-23 10:07 | 58.89214 | 5.63720 | 597 ft | 163 kts | 356° |
| 2026-04-23 10:08 | 58.90409 | 5.63645 | 1329 ft | 173 kts | 355° |
| 2026-04-23 10:08 | 58.91618 | 5.63506 | 2180 ft | 175 kts | 356° |
| 2026-04-23 10:08 | 58.92846 | 5.63359 | 2981 ft | 178 kts | 356° |
| 2026-04-23 10:09 | 58.95224 | 5.65210 | 3754 ft | 236 kts | 54° |
| 2026-04-23 10:09 | 58.95748 | 5.68433 | 4346 ft | 259 kts | 71° |
| 2026-04-23 10:09 | 58.96154 | 5.71889 | 5184 ft | 265 kts | 71° |
| 2026-04-23 10:09 | 58.96564 | 5.75403 | 6047 ft | 270 kts | 71° |
| 2026-04-23 10:10 | 58.96993 | 5.79013 | 6826 ft | 279 kts | 71° |
| 2026-04-23 10:10 | 58.97438 | 5.82696 | 7623 ft | 283 kts | 71° |
| 2026-04-23 10:10 | 58.97896 | 5.86439 | 8437 ft | 286 kts | 71° |
| 2026-04-23 10:10 | 58.98358 | 5.90171 | 9244 ft | 290 kts | 71° |
| 2026-04-23 10:11 | 58.98836 | 5.94010 | 10050 ft | 295 kts | 71° |
| 2026-04-23 10:11 | 58.99326 | 5.97916 | 10738 ft | 303 kts | 72° |
| 2026-04-23 10:11 | 58.99849 | 6.02052 | 10956 ft | 328 kts | 72° |
| 2026-04-23 10:11 | 59.00409 | 6.06488 | 11262 ft | 347 kts | 72° |
| 2026-04-23 10:12 | 59.00985 | 6.11089 | 11899 ft | 354 kts | 73° |
| 2026-04-23 10:12 | 59.01566 | 6.15759 | 12652 ft | 358 kts | 73° |
| 2026-04-23 10:12 | 59.02153 | 6.20483 | 13370 ft | 363 kts | 73° |
| 2026-04-23 10:12 | 59.02747 | 6.25277 | 14089 ft | 367 kts | 74° |
| 2026-04-23 10:13 | 59.03346 | 6.30119 | 14785 ft | 370 kts | 73° |
| 2026-04-23 10:13 | 59.03954 | 6.35048 | 15370 ft | 377 kts | 74° |
| 2026-04-23 10:13 | 59.04556 | 6.39989 | 16178 ft | 375 kts | 75° |
| 2026-04-23 10:13 | 59.05149 | 6.44871 | 16827 ft | 379 kts | 74° |
| 2026-04-23 10:14 | 59.05763 | 6.49893 | 17408 ft | 384 kts | 74° |
| 2026-04-23 10:14 | 59.06381 | 6.54945 | 18143 ft | 385 kts | 74° |
| 2026-04-23 10:14 | 59.07003 | 6.60057 | 18693 ft | 392 kts | 75° |
| 2026-04-23 10:14 | 59.07627 | 6.65221 | 19320 ft | 392 kts | 73° |
| 2026-04-23 10:15 | 59.08255 | 6.70394 | 19847 ft | 396 kts | 73° |
| 2026-04-23 10:15 | 59.08893 | 6.75661 | 20398 ft | 399 kts | 75° |
| 2026-04-23 10:15 | 59.09523 | 6.80920 | 21026 ft | 400 kts | 74° |
| 2026-04-23 10:15 | 59.10144 | 6.86208 | 21692 ft | 400 kts | 74° |
| 2026-04-23 10:16 | 59.10542 | 6.91549 | 22433 ft | 398 kts | 81° |
| 2026-04-23 10:16 | 59.10775 | 6.96912 | 23121 ft | 397 kts | 83° |
| 2026-04-23 10:16 | 59.11131 | 7.02227 | 23768 ft | 395 kts | 78° |
| 2026-04-23 10:16 | 59.11682 | 7.07451 | 24443 ft | 392 kts | 76° |
| 2026-04-23 10:17 | 59.12263 | 7.12543 | 25039 ft | 390 kts | 76° |
| 2026-04-23 10:17 | 59.12864 | 7.17720 | 25265 ft | 392 kts | 75° |
| 2026-04-23 10:17 | 59.13448 | 7.22857 | 25277 ft | 384 kts | 76° |
| 2026-04-23 10:17 | 59.14004 | 7.27860 | 25289 ft | 372 kts | 76° |
| 2026-04-23 10:18 | 59.14533 | 7.32726 | 25283 ft | 361 kts | 76° |
| 2026-04-23 10:18 | 59.15039 | 7.37430 | 25282 ft | 348 kts | 76° |
| 2026-04-23 10:18 | 59.15521 | 7.41965 | 25285 ft | 335 kts | 76° |
| 2026-04-23 10:18 | 59.15983 | 7.46331 | 25251 ft | 323 kts | 76° |
| 2026-04-23 10:19 | 59.16428 | 7.50554 | 25262 ft | 315 kts | 76° |
| 2026-04-23 10:19 | 59.16868 | 7.54746 | 25272 ft | 316 kts | 76° |
| 2026-04-23 10:19 | 59.17312 | 7.58969 | 25288 ft | 319 kts | 76° |
| 2026-04-23 10:19 | 59.17757 | 7.63230 | 25282 ft | 321 kts | 76° |
| 2026-04-23 10:20 | 59.18202 | 7.67507 | 25292 ft | 322 kts | 76° |
| 2026-04-23 10:20 | 59.18647 | 7.71800 | 25262 ft | 324 kts | 76° |
| 2026-04-23 10:20 | 59.19086 | 7.76058 | 25257 ft | 324 kts | 76° |
| 2026-04-23 10:20 | 59.19529 | 7.80369 | 25255 ft | 324 kts | 76° |
| 2026-04-23 10:21 | 59.19970 | 7.84673 | 25249 ft | 323 kts | 76° |
| 2026-04-23 10:21 | 59.20406 | 7.88955 | 25244 ft | 321 kts | 76° |
| 2026-04-23 10:21 | 59.20839 | 7.93221 | 25238 ft | 319 kts | 76° |
| 2026-04-23 10:21 | 59.21269 | 7.97465 | 25238 ft | 317 kts | 76° |
| 2026-04-23 10:22 | 59.21694 | 8.01681 | 25218 ft | 316 kts | 76° |
| 2026-04-23 10:22 | 59.22116 | 8.05875 | 25215 ft | 314 kts | 76° |
| 2026-04-23 10:22 | 59.22537 | 8.10074 | 25112 ft | 319 kts | 76° |
| 2026-04-23 10:22 | 59.22969 | 8.14379 | 24720 ft | 325 kts | 76° |
| 2026-04-23 10:23 | 59.23402 | 8.18721 | 24397 ft | 328 kts | 76° |
| 2026-04-23 10:23 | 59.23852 | 8.23233 | 24095 ft | 349 kts | 76° |
| 2026-04-23 10:23 | 59.24327 | 8.28003 | 23747 ft | 362 kts | 76° |
| 2026-04-23 10:23 | 59.24804 | 8.32853 | 23347 ft | 363 kts | 76° |
| 2026-04-23 10:24 | 59.25276 | 8.37696 | 22950 ft | 363 kts | 76° |
| 2026-04-23 10:24 | 59.25747 | 8.42537 | 22552 ft | 363 kts | 76° |
| 2026-04-23 10:24 | 59.26216 | 8.47371 | 22160 ft | 362 kts | 76° |
| 2026-04-23 10:24 | 59.26684 | 8.52213 | 21767 ft | 362 kts | 76° |
| 2026-04-23 10:25 | 59.27150 | 8.57056 | 21385 ft | 361 kts | 76° |
| 2026-04-23 10:25 | 59.27611 | 8.61864 | 21002 ft | 359 kts | 76° |
| 2026-04-23 10:25 | 59.28064 | 8.66606 | 20637 ft | 357 kts | 77° |
| 2026-04-23 10:25 | 59.28523 | 8.71435 | 20265 ft | 356 kts | 77° |
| 2026-04-23 10:26 | 59.28967 | 8.76122 | 19912 ft | 355 kts | 77° |
| 2026-04-23 10:26 | 59.29415 | 8.80863 | 19551 ft | 353 kts | 77° |
| 2026-04-23 10:26 | 59.29859 | 8.85586 | 19194 ft | 352 kts | 77° |
| 2026-04-23 10:26 | 59.30301 | 8.90290 | 18852 ft | 351 kts | 77° |
| 2026-04-23 10:27 | 59.30737 | 8.94969 | 18507 ft | 349 kts | 77° |
| 2026-04-23 10:27 | 59.31171 | 8.99642 | 18115 ft | 348 kts | 77° |
| 2026-04-23 10:27 | 59.31602 | 9.04309 | 17705 ft | 347 kts | 77° |
| 2026-04-23 10:27 | 59.32029 | 9.08943 | 17338 ft | 346 kts | 76° |
| 2026-04-23 10:28 | 59.32453 | 9.13565 | 16963 ft | 344 kts | 76° |
| 2026-04-23 10:28 | 59.32875 | 9.18176 | 16581 ft | 343 kts | 76° |
| 2026-04-23 10:28 | 59.33292 | 9.22762 | 16209 ft | 342 kts | 76° |
| 2026-04-23 10:28 | 59.33707 | 9.27340 | 15840 ft | 341 kts | 76° |
| 2026-04-23 10:29 | 59.34119 | 9.31910 | 15460 ft | 340 kts | 76° |
| 2026-04-23 10:29 | 59.34530 | 9.36478 | 15050 ft | 339 kts | 75° |
| 2026-04-23 10:29 | 59.34927 | 9.40922 | 14638 ft | 332 kts | 75° |
| 2026-04-23 10:29 | 59.35319 | 9.45339 | 14235 ft | 326 kts | 75° |
| 2026-04-23 10:30 | 59.35703 | 9.49673 | 13806 ft | 320 kts | 75° |
| 2026-04-23 10:30 | 59.36079 | 9.53932 | 13379 ft | 314 kts | 74° |
| 2026-04-23 10:30 | 59.36447 | 9.58112 | 12987 ft | 308 kts | 74° |
| 2026-04-23 10:30 | 59.36807 | 9.62214 | 12592 ft | 302 kts | 74° |
| 2026-04-23 10:31 | 59.37159 | 9.66240 | 12216 ft | 297 kts | 74° |
| 2026-04-23 10:31 | 59.37505 | 9.70205 | 11844 ft | 293 kts | 74° |
| 2026-04-23 10:31 | 59.37846 | 9.74117 | 11457 ft | 289 kts | 74° |
| 2026-04-23 10:31 | 59.38183 | 9.77991 | 11031 ft | 287 kts | 74° |
| 2026-04-23 10:32 | 59.38517 | 9.81856 | 10561 ft | 287 kts | 74° |
| 2026-04-23 10:32 | 59.38851 | 9.85724 | 10097 ft | 288 kts | 74° |
| 2026-04-23 10:32 | 59.39185 | 9.89599 | 9580 ft | 288 kts | 74° |
| 2026-04-23 10:32 | 59.39517 | 9.93481 | 9064 ft | 288 kts | 75° |
| 2026-04-23 10:33 | 59.39847 | 9.97358 | 8558 ft | 287 kts | 75° |
| 2026-04-23 10:33 | 59.40170 | 10.01185 | 8067 ft | 287 kts | 75° |
| 2026-04-23 10:33 | 59.40310 | 10.05105 | 7530 ft | 293 kts | 96° |
| 2026-04-23 10:33 | 59.39558 | 10.08833 | 7078 ft | 295 kts | 115° |
| 2026-04-23 10:34 | 59.38609 | 10.12394 | 6623 ft | 291 kts | 115° |
| 2026-04-23 10:34 | 59.37692 | 10.15883 | 6079 ft | 284 kts | 115° |
| 2026-04-23 10:34 | 59.36801 | 10.19296 | 5463 ft | 278 kts | 115° |
| 2026-04-23 10:34 | 59.35932 | 10.22630 | 4836 ft | 272 kts | 115° |
| 2026-04-23 10:35 | 59.34878 | 10.25650 | 4165 ft | 269 kts | 139° |
| 2026-04-23 10:35 | 59.33233 | 10.27053 | 3541 ft | 259 kts | 178° |
| 2026-04-23 10:35 | 59.31537 | 10.26683 | 3183 ft | 232 kts | 195° |
| 2026-04-23 10:35 | 59.29985 | 10.26218 | 2608 ft | 224 kts | 189° |
| 2026-04-23 10:36 | 59.28456 | 10.25981 | 2076 ft | 212 kts | 187° |
| 2026-04-23 10:36 | 59.27078 | 10.25873 | 1711 ft | 186 kts | 185° |
| 2026-04-23 10:36 | 59.25876 | 10.25827 | 1519 ft | 162 kts | 184° |
| 2026-04-23 10:36 | 59.24804 | 10.25806 | 1312 ft | 147 kts | 184° |
| 2026-04-23 10:37 | 59.23800 | 10.25758 | 977 ft | 142 kts | 182° |
| 2026-04-23 10:37 | 59.22829 | 10.25829 | 832 ft | 138 kts | 184° |
| 2026-04-23 10:37 | 59.21870 | 10.25818 | 690 ft | 138 kts | 184° |
| 2026-04-23 10:37 | 59.20920 | 10.25822 | 512 ft | 135 kts | 183° |
| 2026-04-23 10:38 | 59.20028 | 10.25837 | 336 ft | 120 kts | 186° |
| 2026-04-23 10:38 | 59.19211 | 10.25850 | 277 ft | 103 kts | 179° |
| 2026-04-23 10:38 | 59.18745 | 10.25860 | 278 ft | 33 kts | 179° |
| 2026-04-23 10:38 | 59.18531 | 10.25862 | 278 ft | 30 kts | 180° |
| 2026-04-23 10:39 | 59.18345 | 10.25860 | 277 ft | 25 kts | 181° |
| 2026-04-23 10:39 | 59.18223 | 10.25795 | 277 ft | 13 kts | 227° |
| 2026-04-23 10:39 | 59.18177 | 10.25699 | 277 ft | 10 kts | 227° |
| 2026-04-23 10:39 | 59.18133 | 10.25605 | 277 ft | 9 kts | 227° |
| 2026-04-23 10:40 | 59.18081 | 10.25540 | 277 ft | 9 kts | 187° |
| 2026-04-23 10:40 | 59.18019 | 10.25535 | 277 ft | 9 kts | 179° |
| 2026-04-23 10:40 | 59.17958 | 10.25535 | 277 ft | 9 kts | 180° |
| 2026-04-23 10:40 | 59.17924 | 10.25494 | 279 ft | 5 kts | 259° |
| 2026-04-23 10:41 | 59.17924 | 10.25430 | 277 ft | 2 kts | 269° |
| 2026-04-23 10:41 | 59.17923 | 10.25424 | 277 ft | 0 kts | 269° |